Time;durP1;ratioP1;P1;durP2;ratioP2;P2;SDS_P1;SDS_P2;PMS_P1;PMS_P2;Temp;Humidity;BMP_temperature;BMP_pressure;BME280_temperature;BME280_humidity;BME280_pressure;Samples;Min_cycle;Max_cycle;Signal;HPM_P1;HPM_P2
2022/06/25 00:01:50;;;;;;;7.40;2.85;;;19.10;99.90;;;;;;5091377;28;20031;-81
2022/06/25 00:07:00;;;;;;;9.25;2.90;;;19.10;99.90;;;;;;5092546;28;20127;-81
2022/06/25 00:09:26;;;;;;;3.25;2.50;;;19.10;99.90;;;;;;5091300;28;20054;-81
2022/06/25 00:14:36;;;;;;;5.53;3.17;;;19.00;99.90;;;;;;5092536;28;20050;-80
2022/06/25 00:17:02;;;;;;;5.72;2.70;;;18.90;99.90;;;;;;5092615;28;20077;-81
2022/06/25 00:19:28;;;;;;;7.60;2.47;;;18.90;99.90;;;;;;5091195;28;20107;-80
2022/06/25 00:21:54;;;;;;;4.30;1.90;;;18.90;99.90;;;;;;5091181;28;20031;-82
2022/06/25 00:24:19;;;;;;;4.75;2.15;;;18.90;99.90;;;;;;5091033;28;20024;-81
2022/06/25 00:26:45;;;;;;;3.70;1.98;;;19.00;99.90;;;;;;5091076;28;20020;-81
2022/06/25 00:29:11;;;;;;;6.15;2.35;;;19.00;99.90;;;;;;5090989;28;20386;-80
2022/06/25 00:31:37;;;;;;;2.92;2.53;;;19.00;99.90;;;;;;5090931;28;20344;-80
2022/06/25 00:34:03;;;;;;;5.00;1.83;;;19.00;99.90;;;;;;5092238;28;20043;-81
2022/06/25 00:36:29;;;;;;;3.90;2.40;;;19.00;99.90;;;;;;5091044;28;20024;-81
2022/06/25 00:38:55;;;;;;;4.47;2.00;;;19.00;99.90;;;;;;5092048;28;20012;-80
2022/06/25 00:41:21;;;;;;;6.35;2.25;;;18.90;99.90;;;;;;5091049;28;20051;-80
2022/06/25 00:43:48;;;;;;;6.30;1.42;;;18.90;99.90;;;;;;5091032;28;20056;-80
2022/06/25 00:46:13;;;;;;;5.82;1.50;;;18.80;99.90;;;;;;5090902;28;20028;-80
2022/06/25 00:48:39;;;;;;;3.50;1.83;;;18.80;99.90;;;;;;5092080;28;20537;-80
2022/06/25 00:51:13;;;;;;;4.88;2.38;;;18.70;99.90;;;;;;5090805;28;20048;-80
2022/06/25 00:53:42;;;;;;;3.28;1.80;;;18.70;99.90;;;;;;5092131;28;20020;-80
2022/06/25 00:56:10;;;;;;;5.55;2.10;;;18.60;99.90;;;;;;5090843;28;20008;-80
2022/06/25 00:58:39;;;;;;;5.38;2.30;;;18.50;99.90;;;;;;5091981;28;20031;-80
2022/06/25 01:01:08;;;;;;;5.40;2.25;;;18.40;99.90;;;;;;5090785;28;20127;-81
2022/06/25 01:03:34;;;;;;;4.70;2.28;;;18.30;99.90;;;;;;5090510;28;20044;-81
2022/06/25 01:06:00;;;;;;;10.07;2.55;;;18.20;99.90;;;;;;5090634;28;20027;-81
2022/06/25 01:08:25;;;;;;;7.20;2.53;;;18.30;99.90;;;;;;5091938;28;20032;-81
2022/06/25 01:10:51;;;;;;;5.75;2.35;;;18.20;99.90;;;;;;5092490;28;20562;-80
2022/06/25 01:13:21;;;;;;;10.00;2.60;;;18.20;99.90;;;;;;5094652;28;20028;-80
2022/06/25 01:15:47;;;;;;;5.43;2.55;;;18.20;99.90;;;;;;5094550;28;20023;-80
2022/06/25 01:18:13;;;;;;;4.35;2.92;;;18.20;99.90;;;;;;5094492;28;20107;-81
2022/06/25 01:20:38;;;;;;;5.80;2.60;;;18.20;99.90;;;;;;5094475;28;20110;-81
2022/06/25 01:23:04;;;;;;;3.47;2.83;;;18.20;99.90;;;;;;5094466;28;20020;-81
2022/06/25 01:25:35;;;;;;;4.85;2.88;;;18.20;99.90;;;;;;5095737;28;20027;-80
2022/06/25 01:28:01;;;;;;;2.17;2.00;;;18.10;99.90;;;;;;5094139;28;20039;-81
2022/06/25 01:30:26;;;;;;;9.77;4.00;;;18.10;99.90;;;;;;5095504;28;20487;-80
2022/06/25 01:32:52;;;;;;;5.63;2.17;;;18.00;99.90;;;;;;5095552;28;20094;-81
2022/06/25 01:35:18;;;;;;;5.35;2.38;;;18.00;99.90;;;;;;5094442;28;20020;-81
2022/06/25 01:37:44;;;;;;;11.73;2.97;;;18.00;99.90;;;;;;5095342;28;20039;-81
2022/06/25 01:40:10;;;;;;;4.50;2.88;;;18.00;99.90;;;;;;5095358;28;20104;-81
2022/06/25 01:45:20;;;;;;;5.97;2.30;;;18.00;99.90;;;;;;5095615;28;20482;-80
2022/06/25 01:47:46;;;;;;;7.55;2.67;;;17.90;99.90;;;;;;5093874;28;20031;-80
2022/06/25 01:50:12;;;;;;;3.88;2.75;;;17.90;99.90;;;;;;5093960;28;20028;-80
2022/06/25 01:52:38;;;;;;;7.68;2.75;;;17.80;99.90;;;;;;5095296;28;20024;-80
2022/06/25 01:55:04;;;;;;;5.88;3.13;;;17.80;99.90;;;;;;5095282;28;20421;-80
2022/06/25 01:57:30;;;;;;;6.80;3.05;;;17.70;99.90;;;;;;5093605;28;20016;-80
2022/06/25 01:59:56;;;;;;;10.07;2.58;;;17.70;99.90;;;;;;5095027;28;20073;-81
2022/06/25 02:02:21;;;;;;;5.13;2.15;;;17.60;99.90;;;;;;5093650;28;20375;-81
2022/06/25 02:04:47;;;;;;;5.00;2.50;;;17.50;99.90;;;;;;5093445;28;20147;-80
2022/06/25 02:07:13;;;;;;;4.80;2.35;;;17.50;99.90;;;;;;5094784;28;20094;-81
2022/06/25 02:09:38;;;;;;;4.28;3.85;;;17.40;99.90;;;;;;5093242;28;20451;-80
2022/06/25 02:12:05;;;;;;;5.40;2.55;;;17.40;99.90;;;;;;5093492;28;20035;-81
2022/06/25 02:14:31;;;;;;;4.03;2.60;;;17.30;99.90;;;;;;5094630;28;20020;-81
2022/06/25 02:16:57;;;;;;;10.10;2.78;;;17.30;99.90;;;;;;5093516;28;20024;-80
2022/06/25 02:19:22;;;;;;;6.65;2.67;;;17.20;99.90;;;;;;5094652;28;20057;-80
2022/06/25 02:21:48;;;;;;;2.80;2.28;;;17.20;99.90;;;;;;5094553;28;20038;-81
2022/06/25 02:24:14;;;;;;;6.07;2.50;;;17.20;99.90;;;;;;5093637;28;20035;-81
2022/06/25 02:26:39;;;;;;;10.23;3.28;;;17.20;99.90;;;;;;5094488;28;20028;-80
2022/06/25 02:29:05;;;;;;;8.25;2.83;;;17.20;99.90;;;;;;5093181;28;20028;-81
2022/06/25 02:31:30;;;;;;;7.60;3.72;;;17.20;99.90;;;;;;5093185;28;20367;-80
2022/06/25 02:33:56;;;;;;;9.65;3.35;;;17.20;99.90;;;;;;5094429;28;20032;-80
2022/06/25 02:36:22;;;;;;;5.30;3.13;;;17.20;99.90;;;;;;5094430;28;20023;-80
2022/06/25 02:38:47;;;;;;;2.95;2.63;;;17.20;99.90;;;;;;5094276;28;20023;-80
2022/06/25 02:41:13;;;;;;;6.35;2.90;;;17.20;99.90;;;;;;5094312;28;20031;-80
2022/06/25 02:43:39;;;;;;;7.40;3.30;;;17.20;99.90;;;;;;5092925;28;20016;-80
2022/06/25 02:46:04;;;;;;;6.50;3.45;;;17.20;99.90;;;;;;5092495;28;20031;-81
2022/06/25 02:48:30;;;;;;;4.57;2.83;;;17.20;99.90;;;;;;5092713;28;20085;-81
2022/06/25 02:50:55;;;;;;;7.85;3.38;;;17.20;99.90;;;;;;5094085;28;20024;-80
2022/06/25 02:53:21;;;;;;;4.03;3.00;;;17.20;99.90;;;;;;5092670;28;20357;-80
2022/06/25 03:01:15;;;;;;;5.18;2.65;;;17.10;99.90;;;;;;5094014;28;20043;-81
2022/06/25 03:03:41;;;;;;;10.88;2.55;;;17.00;99.90;;;;;;5093815;28;20048;-81
2022/06/25 03:06:06;;;;;;;5.22;2.00;;;17.10;99.90;;;;;;5092331;28;20031;-80
2022/06/25 03:08:32;;;;;;;4.35;1.88;;;17.00;99.90;;;;;;5093522;28;20043;-81
2022/06/25 03:10:58;;;;;;;8.07;1.65;;;17.00;99.90;;;;;;5093885;28;20017;-80
2022/06/25 03:13:23;;;;;;;2.00;1.52;;;17.00;99.90;;;;;;5093692;28;20024;-81
2022/06/25 03:15:49;;;;;;;1.67;1.27;;;16.90;99.90;;;;;;5092256;28;20078;-81
2022/06/25 03:18:15;;;;;;;1.55;1.00;;;16.80;99.90;;;;;;5093450;28;20024;-81
2022/06/25 03:20:40;;;;;;;2.15;1.10;;;16.80;99.90;;;;;;5092115;28;20486;-81
2022/06/25 03:23:06;;;;;;;1.40;1.00;;;16.70;99.90;;;;;;5092195;28;20040;-81
2022/06/25 03:25:32;;;;;;;5.53;1.08;;;16.60;99.90;;;;;;5092126;28;20032;-81
2022/06/25 03:27:58;;;;;;;1.75;0.90;;;16.70;99.90;;;;;;5093448;28;20031;-81
2022/06/25 03:30:24;;;;;;;1.02;0.60;;;16.70;99.90;;;;;;5092482;28;20103;-82
2022/06/25 03:32:50;;;;;;;3.70;1.38;;;16.70;99.90;;;;;;5092227;28;20039;-81
2022/06/25 03:35:15;;;;;;;1.83;1.23;;;16.70;99.90;;;;;;5092162;28;20051;-81
2022/06/25 03:37:41;;;;;;;1.38;1.27;;;16.70;99.90;;;;;;5091852;28;20085;-81
2022/06/25 03:40:07;;;;;;;6.25;1.65;;;16.80;99.90;;;;;;5091864;28;20020;-81
2022/06/25 03:42:33;;;;;;;7.05;1.50;;;16.80;99.90;;;;;;5091784;28;20039;-81
2022/06/25 03:44:59;;;;;;;1.77;1.02;;;16.90;99.90;;;;;;5092914;28;20016;-81
2022/06/25 03:47:24;;;;;;;1.27;1.17;;;16.90;99.90;;;;;;5091637;28;20035;-80
2022/06/25 03:49:50;;;;;;;4.55;1.65;;;16.90;99.90;;;;;;5092973;28;20031;-81
2022/06/25 03:52:15;;;;;;;7.40;2.17;;;16.90;99.90;;;;;;5091534;28;20115;-81
2022/06/25 03:54:41;;;;;;;1.70;1.60;;;17.00;99.90;;;;;;5093064;28;20095;-81
2022/06/25 03:57:07;;;;;;;1.73;1.15;;;17.00;99.90;;;;;;5091535;28;20055;-81
2022/06/25 03:59:33;;;;;;;4.45;0.80;;;17.00;99.90;;;;;;5091300;28;20031;-81
2022/06/25 04:01:58;;;;;;;4.38;0.70;;;17.00;99.90;;;;;;5091652;28;20047;-81
2022/06/25 04:04:24;;;;;;;1.15;0.80;;;17.00;99.90;;;;;;5091135;28;20078;-81
2022/06/25 04:06:50;;;;;;;1.48;1.33;;;17.00;99.90;;;;;;5091276;28;20040;-80
2022/06/25 04:09:15;;;;;;;6.28;2.17;;;17.10;99.90;;;;;;5091267;28;20027;-81
2022/06/25 04:11:41;;;;;;;2.28;1.88;;;17.20;99.90;;;;;;5092680;28;20027;-81
2022/06/25 04:14:07;;;;;;;3.33;2.53;;;17.20;99.90;;;;;;5092610;28;20020;-80
2022/06/25 04:16:33;;;;;;;4.10;2.38;;;17.20;99.90;;;;;;5091207;28;20012;-81
2022/06/25 04:18:59;;;;;;;4.55;1.90;;;17.30;99.90;;;;;;5091137;28;20024;-81
2022/06/25 04:21:25;;;;;;;2.28;1.95;;;17.40;99.90;;;;;;5092365;28;20095;-80
2022/06/25 04:23:51;;;;;;;3.63;2.08;;;17.50;99.90;;;;;;5092514;28;20039;-80
2022/06/25 04:26:17;;;;;;;4.03;2.00;;;17.60;99.90;;;;;;5091204;28;20024;-81
2022/06/25 04:31:27;;;;;;;8.00;2.75;;;17.80;99.90;;;;;;5092604;28;20027;-81
2022/06/25 04:33:53;;;;;;;6.65;2.70;;;17.90;99.90;;;;;;5091077;28;20024;-80
2022/06/25 04:36:19;;;;;;;2.28;2.08;;;17.90;99.90;;;;;;5090991;28;20028;-81
2022/06/25 04:38:45;;;;;;;6.10;1.42;;;18.10;99.90;;;;;;5090826;28;20024;-80
2022/06/25 04:41:10;;;;;;;0.80;0.80;;;18.20;99.90;;;;;;5090943;28;20028;-80
2022/06/25 04:43:36;;;;;;;3.92;0.80;;;18.20;99.90;;;;;;5091121;28;20032;-80
2022/06/25 04:46:02;;;;;;;0.80;0.80;;;18.30;99.90;;;;;;5091701;28;20047;-80
2022/06/25 04:48:27;;;;;;;1.95;1.73;;;18.40;99.90;;;;;;5095222;28;20024;-80
2022/06/25 04:50:53;;;;;;;1.40;0.82;;;18.50;99.90;;;;;;5096367;28;20026;-80
2022/06/25 04:53:19;;;;;;;4.38;0.45;;;18.60;99.90;;;;;;5094560;28;20028;-80
2022/06/25 04:55:44;;;;;;;0.10;0.10;;;18.70;99.90;;;;;;5095110;28;20024;-80
2022/06/25 04:58:10;;;;;;;0.00;0.00;;;18.70;99.90;;;;;;5096157;28;20027;-80
2022/06/25 05:00:36;;;;;;;0.15;0.03;;;18.70;99.90;;;;;;5094958;28;20056;-80
2022/06/25 05:03:02;;;;;;;0.00;0.00;;;18.70;99.90;;;;;;5094997;28;20103;-81
2022/06/25 05:05:27;;;;;;;0.00;0.00;;;18.60;99.90;;;;;;5094763;28;20510;-80
2022/06/25 05:07:53;;;;;;;0.10;0.10;;;18.60;99.90;;;;;;5095794;28;20032;-81
2022/06/25 05:10:19;;;;;;;0.10;0.10;;;18.50;99.90;;;;;;5094793;28;20498;-78
2022/06/25 05:15:28;;;;;;;0.40;0.03;;;18.90;99.90;;;;;;5096075;28;20039;-78
2022/06/25 05:17:54;;;;;;;0.00;0.00;;;19.20;99.90;;;;;;5095565;28;20020;-78
2022/06/25 05:20:20;;;;;;;0.15;0.05;;;19.50;99.90;;;;;;5095534;28;20024;-78
2022/06/25 05:22:45;;;;;;;0.73;0.10;;;19.70;99.90;;;;;;5099222;28;20048;-79
2022/06/25 05:25:11;;;;;;;0.65;0.15;;;19.90;99.90;;;;;;5095974;28;20383;-79
2022/06/25 05:27:37;;;;;;;1.77;0.10;;;20.00;99.90;;;;;;5095306;28;20028;-79
2022/06/25 05:30:04;;;;;;;0.10;0.10;;;20.10;99.90;;;;;;5095523;28;20104;-78
2022/06/25 05:32:29;;;;;;;0.10;0.10;;;20.20;99.90;;;;;;5095276;28;20024;-79
2022/06/25 05:34:57;;;;;;;0.13;0.10;;;20.30;99.90;;;;;;5095325;28;20027;-79
2022/06/25 05:37:24;;;;;;;0.05;0.03;;;20.30;99.90;;;;;;5095217;28;20060;-79
2022/06/25 05:39:49;;;;;;;0.03;0.03;;;20.30;99.90;;;;;;5095107;28;20016;-79
2022/06/25 05:42:16;;;;;;;0.68;0.05;;;20.60;99.90;;;;;;5095104;28;20479;-78
2022/06/25 05:44:43;;;;;;;0.00;0.00;;;20.80;99.90;;;;;;5095320;28;20016;-78
2022/06/25 05:47:09;;;;;;;0.98;0.08;;;21.10;99.90;;;;;;5093782;28;20473;-79
2022/06/25 05:49:35;;;;;;;0.35;0.00;;;21.20;99.90;;;;;;5095095;28;20032;-78
2022/06/25 05:52:00;;;;;;;0.00;0.00;;;21.30;99.90;;;;;;5095064;28;20019;-79
2022/06/25 05:54:26;;;;;;;0.00;0.00;;;21.40;99.90;;;;;;5095192;28;20028;-78
2022/06/25 05:56:52;;;;;;;0.03;0.00;;;21.50;99.90;;;;;;5094781;28;20452;-79
2022/06/25 05:59:18;;;;;;;0.40;0.00;;;21.70;99.90;;;;;;5094787;28;20450;-78
2022/06/25 06:01:44;;;;;;;0.00;0.00;;;21.60;97.60;;;;;;5094920;28;20067;-79
2022/06/25 06:04:09;;;;;;;0.00;0.00;;;21.60;98.70;;;;;;5094575;28;20047;-78
2022/06/25 06:06:35;;;;;;;0.00;0.00;;;21.70;99.30;;;;;;5094636;28;20040;-79
2022/06/25 06:09:00;;;;;;;0.30;0.00;;;21.80;96.60;;;;;;5094669;28;20059;-79
2022/06/25 06:11:26;;;;;;;0.00;0.00;;;21.80;96.50;;;;;;5088151;28;20051;-78
2022/06/25 06:13:52;;;;;;;0.20;0.00;;;21.90;96.40;;;;;;5093338;28;20055;-79
2022/06/25 06:16:17;;;;;;;0.85;0.10;;;22.10;95.10;;;;;;5093319;28;20020;-79
2022/06/25 06:18:43;;;;;;;0.03;0.03;;;22.20;94.60;;;;;;5094384;28;20463;-79
2022/06/25 06:21:09;;;;;;;0.32;0.05;;;22.40;94.40;;;;;;5094444;28;20020;-79
2022/06/25 06:23:34;;;;;;;0.45;0.32;;;22.70;93.40;;;;;;5093574;28;20016;-79
2022/06/25 06:26:00;;;;;;;0.10;0.10;;;23.00;93.00;;;;;;5094341;28;20025;-79
2022/06/25 06:28:26;;;;;;;0.00;0.00;;;23.00;91.40;;;;;;5094120;28;20075;-78
2022/06/25 06:30:51;;;;;;;0.00;0.00;;;22.80;91.30;;;;;;5094088;28;20124;-79
2022/06/25 06:33:17;;;;;;;0.10;0.10;;;22.90;91.60;;;;;;5094239;28;20084;-78
2022/06/25 06:35:43;;;;;;;2.20;0.00;;;22.90;92.40;;;;;;5092932;28;20461;-79
2022/06/25 06:38:09;;;;;;;0.00;0.00;;;22.70;92.50;;;;;;5094199;28;20024;-78
2022/06/25 06:40:34;;;;;;;0.00;0.00;;;22.70;93.30;;;;;;5093051;28;20487;-78
2022/06/25 06:43:00;;;;;;;0.65;0.05;;;22.70;93.00;;;;;;5093021;28;20031;-79
2022/06/25 06:45:26;;;;;;;0.10;0.00;;;22.60;93.30;;;;;;5094277;28;20020;-79
2022/06/25 06:47:52;;;;;;;0.00;0.00;;;22.60;93.20;;;;;;5093892;28;20040;-79
2022/06/25 06:50:18;;;;;;;0.00;0.00;;;22.50;92.50;;;;;;5093824;28;20103;-78
2022/06/25 06:52:44;;;;;;;0.15;0.00;;;22.40;93.30;;;;;;5093933;28;20039;-79
2022/06/25 06:55:09;;;;;;;0.05;0.00;;;22.50;93.50;;;;;;5093887;28;20058;-78
2022/06/25 06:57:35;;;;;;;1.38;0.05;;;22.50;93.20;;;;;;5093722;28;20035;-78
2022/06/25 07:00:06;;;;;;;0.30;0.00;;;22.50;93.40;;;;;;5092667;28;20429;-79
2022/06/25 07:02:32;;;;;;;0.00;0.00;;;22.50;92.50;;;;;;5093443;28;20037;-79
2022/06/25 07:04:57;;;;;;;0.15;0.00;;;22.50;91.50;;;;;;5093430;28;20484;-78
2022/06/25 07:07:23;;;;;;;0.00;0.00;;;22.50;91.40;;;;;;5093371;28;20047;-78
2022/06/25 07:09:49;;;;;;;0.00;0.00;;;22.60;91.20;;;;;;5092941;28;20024;-78
2022/06/25 07:12:16;;;;;;;0.05;0.00;;;22.60;91.90;;;;;;5092490;28;20016;-77
2022/06/25 07:14:41;;;;;;;0.00;0.00;;;22.70;91.20;;;;;;5093498;28;20689;-78
2022/06/25 07:17:07;;;;;;;0.65;0.03;;;22.80;91.90;;;;;;5093449;28;20020;-77
2022/06/25 07:19:33;;;;;;;0.00;0.00;;;22.80;92.20;;;;;;5093483;28;20012;-79
2022/06/25 07:21:59;;;;;;;0.43;0.10;;;23.00;92.00;;;;;;5091729;28;20025;-78
2022/06/25 07:24:25;;;;;;;0.17;0.17;;;23.00;91.10;;;;;;5093097;28;20015;-79
2022/06/25 07:26:51;;;;;;;0.90;0.20;;;23.10;90.90;;;;;;5092949;28;20459;-76
2022/06/25 07:29:17;;;;;;;0.40;0.30;;;23.20;90.50;;;;;;5092743;28;20056;-78
2022/06/25 07:31:45;;;;;;;0.50;0.30;;;23.10;90.40;;;;;;5093001;28;20024;-76
2022/06/25 07:34:12;;;;;;;0.00;0.00;;;23.20;89.90;;;;;;5093123;28;20483;-77
2022/06/25 07:36:38;;;;;;;0.10;0.10;;;23.20;87.00;;;;;;5091734;28;20460;-77
2022/06/25 07:39:03;;;;;;;0.22;0.20;;;23.40;87.30;;;;;;5092721;28;20360;-77
2022/06/25 07:41:29;;;;;;;1.33;0.38;;;23.70;90.00;;;;;;5092924;28;20085;-78
2022/06/25 07:43:55;;;;;;;0.00;0.00;;;24.10;86.40;;;;;;5092648;28;20494;-78
2022/06/25 07:46:21;;;;;;;0.00;0.00;;;24.20;84.10;;;;;;5092711;28;20386;-76
2022/06/25 07:48:47;;;;;;;1.00;0.32;;;24.30;81.40;;;;;;5092623;28;20054;-75
2022/06/25 07:53:56;;;;;;;0.00;0.00;;;24.20;81.70;;;;;;5093129;28;20096;-75
2022/06/25 07:56:22;;;;;;;0.00;0.00;;;24.30;80.30;;;;;;5092897;28;20028;-74
2022/06/25 07:58:48;;;;;;;0.03;0.03;;;24.40;81.70;;;;;;5092878;28;20061;-75
2022/06/25 08:01:14;;;;;;;1.35;0.00;;;24.40;81.00;;;;;;5092915;28;20058;-75
2022/06/25 08:03:40;;;;;;;0.13;0.03;;;24.40;80.20;;;;;;5093038;28;20116;-75
2022/06/25 08:06:05;;;;;;;0.00;0.00;;;24.40;81.30;;;;;;5091449;28;20483;-75
2022/06/25 08:08:31;;;;;;;0.00;0.00;;;24.60;82.00;;;;;;5092430;28;20047;-75
2022/06/25 08:10:57;;;;;;;0.10;0.05;;;24.40;81.80;;;;;;5092512;28;20031;-76
2022/06/25 08:13:23;;;;;;;0.00;0.00;;;24.20;80.80;;;;;;5092614;28;20028;-76
2022/06/25 08:15:50;;;;;;;0.10;0.10;;;24.10;79.10;;;;;;5092716;28;20417;-76
2022/06/25 08:18:16;;;;;;;0.00;0.00;;;24.00;79.90;;;;;;5092550;28;20161;-75
2022/06/25 08:20:42;;;;;;;0.32;0.00;;;24.00;82.60;;;;;;5091533;28;20036;-75
2022/06/25 08:23:08;;;;;;;0.00;0.00;;;23.70;81.40;;;;;;5092417;28;20024;-76
2022/06/25 08:25:34;;;;;;;0.00;0.00;;;23.70;81.00;;;;;;5092288;28;20462;-75
2022/06/25 08:28:00;;;;;;;0.00;0.00;;;23.70;80.50;;;;;;5092270;28;20028;-76
2022/06/25 08:30:26;;;;;;;0.10;0.00;;;23.60;81.50;;;;;;5091751;28;20016;-75
2022/06/25 08:32:53;;;;;;;0.00;0.00;;;23.70;83.00;;;;;;5092008;28;20020;-75
2022/06/25 08:35:18;;;;;;;0.00;0.00;;;23.90;82.00;;;;;;5092184;28;20027;-76
2022/06/25 08:37:48;;;;;;;0.52;0.52;;;23.90;82.30;;;;;;5091725;28;20028;-75
2022/06/25 08:40:17;;;;;;;0.47;0.20;;;24.00;82.90;;;;;;5091961;28;20027;-75
2022/06/25 08:42:43;;;;;;;0.20;0.20;;;24.00;82.90;;;;;;5090600;28;20058;-76
2022/06/25 08:45:09;;;;;;;2.55;0.10;;;24.00;83.60;;;;;;5091926;28;20043;-75
2022/06/25 08:47:43;;;;;;;0.20;0.20;;;24.10;83.50;;;;;;5091770;28;20070;-76
2022/06/25 08:50:10;;;;;;;0.10;0.00;;;24.20;81.70;;;;;;5091852;28;20020;-75
2022/06/25 08:52:38;;;;;;;0.00;0.00;;;24.20;80.60;;;;;;5091930;28;20024;-75
2022/06/25 08:55:04;;;;;;;0.05;0.05;;;24.10;78.30;;;;;;5092029;28;20016;-75
2022/06/25 08:57:30;;;;;;;0.52;0.15;;;23.90;79.80;;;;;;5091996;28;20360;-75
2022/06/25 08:59:57;;;;;;;0.00;0.00;;;23.90;81.10;;;;;;5092111;28;20027;-75
2022/06/25 09:02:22;;;;;;;0.20;0.10;;;24.00;80.50;;;;;;5091946;28;20380;-75
2022/06/25 09:04:48;;;;;;;0.00;0.00;;;24.10;81.90;;;;;;5091873;28;20041;-76
2022/06/25 09:07:14;;;;;;;0.00;0.00;;;24.10;80.90;;;;;;5090334;28;20035;-75
2022/06/25 09:09:45;;;;;;;0.20;0.00;;;24.20;79.90;;;;;;5092019;28;20020;-75
2022/06/25 09:12:14;;;;;;;0.03;0.00;;;24.20;79.40;;;;;;5090795;28;20042;-75
2022/06/25 09:14:40;;;;;;;0.00;0.00;;;24.20;78.90;;;;;;5091676;28;20090;-76
2022/06/25 09:17:12;;;;;;;0.10;0.00;;;24.20;79.60;;;;;;5092029;28;20518;-75
2022/06/25 09:19:42;;;;;;;0.20;0.00;;;24.40;80.60;;;;;;5091983;28;20021;-75
2022/06/25 09:22:13;;;;;;;0.10;0.10;;;24.60;79.60;;;;;;5091862;28;20099;-76
2022/06/25 09:24:44;;;;;;;0.10;0.00;;;24.80;78.40;;;;;;5091752;28;20020;-76
2022/06/25 09:27:10;;;;;;;0.00;0.00;;;24.80;77.50;;;;;;5091890;28;20055;-76
2022/06/25 09:29:44;;;;;;;0.10;0.10;;;25.00;77.10;;;;;;5091521;28;20483;-75
2022/06/25 09:32:10;;;;;;;0.00;0.00;;;25.00;77.00;;;;;;5093016;28;20039;-75
2022/06/25 09:34:37;;;;;;;0.45;0.10;;;25.10;76.10;;;;;;5095537;28;20084;-76
2022/06/25 09:37:25;;;;;;;0.00;0.00;;;25.20;76.60;;;;;;5095465;28;20024;-76
2022/06/25 09:39:53;;;;;;;0.00;0.00;;;25.20;76.40;;;;;;5095338;28;20028;-76
2022/06/25 09:42:20;;;;;;;0.08;0.05;;;25.30;75.10;;;;;;5095461;28;20111;-75
2022/06/25 09:44:46;;;;;;;0.28;0.00;;;25.20;74.40;;;;;;5094217;28;20024;-75
2022/06/25 09:47:13;;;;;;;1.45;0.00;;;25.30;76.00;;;;;;5094019;28;20058;-76
2022/06/25 09:49:39;;;;;;;0.10;0.10;;;25.30;74.70;;;;;;5095358;28;20028;-75
2022/06/25 09:52:06;;;;;;;2.17;0.10;;;25.20;75.00;;;;;;5095179;28;20020;-76
2022/06/25 09:54:32;;;;;;;0.52;0.10;;;25.40;75.70;;;;;;5096245;28;20027;-75
2022/06/25 09:57:00;;;;;;;0.05;0.00;;;25.30;74.90;;;;;;5095217;28;20044;-75
2022/06/25 09:59:30;;;;;;;1.77;0.10;;;25.50;73.60;;;;;;5095953;28;20475;-75
2022/06/25 10:01:58;;;;;;;0.00;0.00;;;25.50;73.80;;;;;;5095127;28;20024;-74
2022/06/25 10:04:27;;;;;;;0.30;0.10;;;25.50;73.60;;;;;;5094960;28;20123;-75
2022/06/25 10:06:56;;;;;;;0.10;0.10;;;25.60;73.10;;;;;;5094884;28;20085;-75
2022/06/25 10:09:25;;;;;;;0.00;0.00;;;25.70;72.40;;;;;;5094535;28;20394;-75
2022/06/25 10:11:52;;;;;;;0.10;0.08;;;25.80;72.60;;;;;;5093399;28;20035;-75
2022/06/25 10:14:18;;;;;;;0.20;0.17;;;25.90;72.50;;;;;;5094542;28;20032;-74
2022/06/25 10:16:44;;;;;;;0.00;0.00;;;26.00;72.40;;;;;;5094519;28;20378;-75
2022/06/25 10:19:12;;;;;;;0.10;0.10;;;26.10;71.40;;;;;;5094549;28;20028;-75
2022/06/25 10:21:37;;;;;;;1.10;0.10;;;26.00;71.50;;;;;;5094237;28;20482;-74
2022/06/25 10:24:06;;;;;;;0.10;0.10;;;26.10;72.40;;;;;;5094598;28;20032;-75
2022/06/25 10:26:32;;;;;;;0.00;0.00;;;26.20;72.00;;;;;;5094204;28;20089;-75
2022/06/25 10:29:02;;;;;;;1.05;0.15;;;26.20;70.60;;;;;;5094344;28;20058;-75
2022/06/25 10:31:28;;;;;;;0.60;0.15;;;26.30;69.90;;;;;;5093323;28;20020;-74
2022/06/25 10:33:59;;;;;;;0.00;0.00;;;26.30;71.40;;;;;;5094229;28;20085;-76
2022/06/25 10:36:47;;;;;;;0.00;0.00;;;26.30;70.50;;;;;;5094712;28;20345;-75
2022/06/25 10:39:28;;;;;;;0.40;0.10;;;26.30;71.20;;;;;;5093839;28;20024;-75
2022/06/25 10:45:04;;;;;;;0.30;0.10;;;26.30;70.90;;;;;;5093231;28;20039;-74
2022/06/25 10:47:56;;;;;;;0.00;0.00;;;26.30;70.60;;;;;;5094035;28;20039;-75
2022/06/25 10:50:22;;;;;;;0.00;0.00;;;26.40;71.60;;;;;;5091972;28;20483;-75
2022/06/25 10:53:03;;;;;;;0.30;0.10;;;26.40;71.90;;;;;;5081326;28;20032;-75
2022/06/25 10:55:47;;;;;;;0.00;0.00;;;26.50;70.70;;;;;;5073669;28;20031;-75
2022/06/25 10:58:14;;;;;;;0.17;0.00;;;26.50;69.50;;;;;;5073276;28;20024;-75
2022/06/25 11:00:46;;;;;;;0.47;0.08;;;26.50;70.90;;;;;;5073518;28;20036;-81
2022/06/25 11:03:12;;;;;;;0.08;0.08;;;26.60;71.20;;;;;;5072802;28;20017;-74
2022/06/25 11:05:42;;;;;;;0.00;0.00;;;26.80;71.70;;;;;;5073520;28;20036;-75
2022/06/25 11:08:08;;;;;;;0.03;0.03;;;26.70;69.70;;;;;;5073244;28;20033;-75
2022/06/25 11:10:38;;;;;;;0.00;0.00;;;26.60;70.50;;;;;;5073369;28;20403;-75
2022/06/25 11:13:04;;;;;;;0.05;0.05;;;26.60;71.20;;;;;;5073614;28;20035;-75
2022/06/25 11:15:43;;;;;;;0.10;0.10;;;26.50;69.80;;;;;;5075839;28;20114;-75
2022/06/25 11:18:11;;;;;;;0.35;0.00;;;26.40;69.30;;;;;;5091917;28;20519;-75
2022/06/25 11:20:38;;;;;;;0.63;0.10;;;26.60;70.80;;;;;;5093548;28;20032;-76
2022/06/25 11:23:04;;;;;;;0.00;0.00;;;26.70;71.00;;;;;;5093470;28;20028;-75
2022/06/25 11:28:49;;;;;;;0.00;0.00;;;27.10;68.70;;;;;;5093138;28;20159;-76
2022/06/25 11:31:15;;;;;;;0.10;0.10;;;27.30;68.80;;;;;;5091902;28;20440;-75
2022/06/25 11:33:43;;;;;;;0.00;0.00;;;27.40;67.80;;;;;;5092995;28;20028;-75
2022/06/25 11:36:10;;;;;;;0.03;0.03;;;27.50;68.60;;;;;;5093471;28;20080;-75
2022/06/25 11:38:39;;;;;;;0.08;0.08;;;27.50;69.00;;;;;;5093094;28;20024;-74
2022/06/25 11:41:04;;;;;;;5.07;0.15;;;27.60;68.30;;;;;;5093140;28;20031;-75
2022/06/25 11:43:30;;;;;;;0.00;0.00;;;28.00;70.90;;;;;;5093044;28;20383;-75
2022/06/25 11:45:58;;;;;;;0.10;0.10;;;28.30;65.90;;;;;;5092866;28;20053;-75
2022/06/25 11:48:31;;;;;;;0.28;0.22;;;28.20;64.60;;;;;;5092835;28;20047;-76
2022/06/25 11:51:00;;;;;;;0.00;0.00;;;28.10;65.00;;;;;;5092832;28;20016;-78
2022/06/25 11:53:26;;;;;;;0.38;0.10;;;28.00;65.20;;;;;;5092957;28;20034;-75
2022/06/25 11:56:03;;;;;;;0.10;0.10;;;28.00;66.00;;;;;;5092681;28;20024;-75
2022/06/25 11:58:32;;;;;;;0.17;0.10;;;27.90;66.60;;;;;;5092547;28;20081;-75
2022/06/25 12:00:59;;;;;;;0.25;0.05;;;27.70;66.00;;;;;;5091460;28;20081;-74
2022/06/25 12:03:28;;;;;;;0.95;0.10;;;27.30;66.40;;;;;;5092618;28;20028;-78
2022/06/25 12:05:55;;;;;;;0.15;0.00;;;27.00;68.40;;;;;;5091657;28;20040;-75
2022/06/25 12:08:23;;;;;;;0.08;0.08;;;26.80;69.00;;;;;;5090663;28;20458;-76
2022/06/25 12:10:51;;;;;;;0.22;0.10;;;26.70;69.40;;;;;;5093047;28;20020;-75
2022/06/25 12:13:17;;;;;;;0.45;0.10;;;26.60;68.50;;;;;;5091523;28;20103;-74
2022/06/25 12:15:43;;;;;;;0.63;0.20;;;26.50;69.50;;;;;;5092671;28;20479;-75
2022/06/25 12:18:09;;;;;;;0.00;0.00;;;26.50;69.80;;;;;;5092668;28;20020;-76
2022/06/25 12:20:35;;;;;;;0.10;0.10;;;26.60;69.20;;;;;;5092426;28;20032;-76
2022/06/25 12:23:01;;;;;;;0.10;0.10;;;26.50;68.70;;;;;;5092625;28;20032;-75
2022/06/25 12:25:32;;;;;;;0.20;0.10;;;26.30;69.00;;;;;;5092422;28;20016;-76
2022/06/25 12:27:58;;;;;;;0.20;0.20;;;26.40;70.70;;;;;;5092077;28;20093;-76
2022/06/25 12:30:25;;;;;;;0.95;0.10;;;26.60;71.00;;;;;;5090812;28;20376;-76
2022/06/25 12:32:53;;;;;;;0.00;0.00;;;26.70;69.00;;;;;;5092022;28;20020;-76
2022/06/25 12:35:21;;;;;;;0.10;0.10;;;26.70;68.00;;;;;;5091942;28;20464;-75
2022/06/25 12:38:09;;;;;;;0.00;0.00;;;26.80;67.60;;;;;;5090369;28;20028;-75
2022/06/25 12:40:39;;;;;;;0.00;0.00;;;26.80;69.50;;;;;;5090503;28;20024;-75
2022/06/25 12:43:09;;;;;;;0.05;0.00;;;26.90;68.10;;;;;;5092040;28;20028;-76
2022/06/25 12:45:36;;;;;;;0.22;0.10;;;27.20;67.70;;;;;;5091848;28;20024;-76
2022/06/25 12:48:03;;;;;;;0.43;0.43;;;27.50;66.10;;;;;;5091898;28;20047;-77
2022/06/25 12:50:33;;;;;;;0.38;0.05;;;27.50;66.40;;;;;;5092029;28;20341;-76
2022/06/25 12:53:25;;;;;;;0.03;0.03;;;27.50;67.90;;;;;;5091861;28;20427;-76
2022/06/25 12:55:51;;;;;;;1.77;0.10;;;27.70;69.90;;;;;;5088312;28;20398;-75
2022/06/25 12:58:17;;;;;;;1.67;0.10;;;27.90;68.10;;;;;;5091810;28;20020;-76
2022/06/25 13:00:44;;;;;;;0.00;0.00;;;27.80;66.00;;;;;;5092168;28;20052;-75
2022/06/25 13:03:10;;;;;;;0.15;0.10;;;27.70;66.20;;;;;;5091733;28;20021;-76
2022/06/25 13:05:36;;;;;;;0.00;0.00;;;27.50;67.00;;;;;;5092057;28;20024;-76
2022/06/25 13:08:03;;;;;;;0.15;0.00;;;27.50;66.80;;;;;;5094396;28;20103;-76
2022/06/25 13:10:30;;;;;;;0.00;0.00;;;27.20;66.30;;;;;;5095801;28;20023;-76
2022/06/25 13:12:55;;;;;;;0.00;0.00;;;27.10;67.60;;;;;;5095889;28;20024;-75